King Philippos — 9HA3023 — position and weather

sailwx.info

Track history (hours):
 
Tides and Currents Weather Stations Pressure Air Temp Water Temp Dewpoint Dewpoint Depression Visibility Wind Speed Wind Dir Waves Ship Positions

King Philippos

Last reported at 2017-May-07 19:36 UTC. Time now 2017-May-25 14:09 UTC.
Position N 01°53' E 102°24'.
Warning: this ship's position is 17 days out of date.

Length 250 m; draft 8.1 m.

Type: Tanker. MMSI: 229046000.

Date/timePositionNaut miles runAvg speedWind from/ knotsBaromVisibWave heightAir tempDewpointWater temp
2017-May-07 19:36N 01°53' E 102°24'113.3
2017-May-07 19:30N 01°53' E 102°25'1713.4
2017-May-07 18:12N 01°46' E 102°41'5412.3
2017-May-07 13:46N 01°15' E 103°26'411.2
2017-May-07 13:27N 01°14' E 103°30'511.7
2017-May-07 13:00N 01°12' E 103°35'4 8.4
2017-May-07 12:31N 01°10' E 103°39'2 4.8
2017-May-07 11:59N 01°10' E 103°41'4 8.2
2017-May-07 11:30N 01°09' E 103°45'611.8
2017-May-07 11:00N 01°11' E 103°50'611.4
2017-May-07 10:31N 01°14' E 103°55'611.3
2017-May-07 10:00N 01°16' E 104°01'3 0.4
2017-May-07 02:50N 01°15' E 104°03'412.9
2017-May-07 02:30N 01°14' E 103°59'612.5
2017-May-07 02:00N 01°12' E 103°53'612.0
2017-May-07 01:31N 01°09' E 103°48'612.3
2017-May-07 01:01N 01°05' E 103°43'611.5
2017-May-07 00:30N 01°03' E 103°38'612.1
2017-May-06 23:59N 01°06' E 103°33'5 9.9
2017-May-06 23:30N 01°10' E 103°35'510.4
2017-May-06 23:00N 01°11' E 103°40'2 3.3
2017-May-06 22:31N 01°13' E 103°41'0 0.1
2017-May-06 21:58N 01°13' E 103°41'0 0.0
2017-May-06 21:28N 01°13' E 103°41'0 0.0
2017-May-06 20:58N 01°13' E 103°41'0 0.0
2017-May-06 20:28N 01°13' E 103°41'0 0.1
2017-May-06 19:58N 01°13' E 103°41'0 0.1
2017-May-06 19:28N 01°13' E 103°41'0 0.3
2017-May-06 18:55N 01°12' E 103°41'0 0.1
2017-May-06 18:25N 01°12' E 103°41'0 0.0
2017-May-06 17:58N 01°12' E 103°41'0 0.0
2017-May-06 17:28N 01°12' E 103°41'0 0.0
2017-May-06 16:55N 01°12' E 103°41'0 0.1
2017-May-06 16:28N 01°12' E 103°41'0 0.1
2017-May-06 15:58N 01°12' E 103°41'0 0.0
2017-May-06 15:28N 01°12' E 103°41'0 0.1
2017-May-06 14:58N 01°12' E 103°41'0 0.0
2017-May-06 13:55N 01°12' E 103°41'0 0.0
2017-May-06 13:28N 01°12' E 103°41'0 0.0
2017-May-06 12:52N 01°12' E 103°41'0 0.3
2017-May-06 12:28N 01°12' E 103°41'0 0.1
2017-May-06 11:58N 01°13' E 103°41'0 0.1
2017-May-06 11:28N 01°13' E 103°41'0 0.0
2017-May-06 10:52N 01°13' E 103°41'0 0.0
2017-May-06 10:28N 01°13' E 103°41'0 1.1
2017-May-06 10:00N 01°13' E 103°41'2 4.8
2017-May-06 09:30N 01°15' E 103°39'2 4.2
2017-May-06 09:00N 01°17' E 103°40'2 3.3
2017-May-06 08:28N 01°18' E 103°41'0 0.7
2017-May-06 07:58N 01°18' E 103°41'0 0.2
2017-May-06 07:28N 01°18' E 103°41'0 0.0
2017-May-06 06:55N 01°18' E 103°41'0 0.0
2017-May-06 06:25N 01°18' E 103°41'0 0.0
2017-May-06 05:58N 01°18' E 103°41'0 0.0
2017-May-06 05:16N 01°18' E 103°41'0 0.0
2017-May-06 04:58N 01°18' E 103°41'0 0.0
2017-May-06 04:28N 01°18' E 103°41'0 0.0
2017-May-06 03:52N 01°18' E 103°41'0 0.0
2017-May-06 03:28N 01°18' E 103°41'0 0.0
2017-May-06 02:58N 01°18' E 103°41'0 0.0
2017-May-06 02:28N 01°18' E 103°41'0 0.0
2017-May-06 01:58N 01°18' E 103°41'0 0.0
2017-May-06 01:28N 01°18' E 103°41'0 0.0
2017-May-06 00:49N 01°18' E 103°41'0 0.0
2017-May-06 00:19N 01°18' E 103°41'0 0.0
2017-May-05 23:58N 01°18' E 103°41'0 0.0
2017-May-05 23:28N 01°18' E 103°41'0 0.0
2017-May-05 22:58N 01°18' E 103°41'0 0.0
2017-May-05 22:28N 01°18' E 103°41'0 0.0
2017-May-05 21:55N 01°18' E 103°41'0 0.0
2017-May-05 21:28N 01°18' E 103°41'0 0.0
2017-May-05 20:58N 01°18' E 103°41'0 0.0
2017-May-05 20:28N 01°18' E 103°41'0 0.0
2017-May-05 19:52N 01°18' E 103°41'0 0.0
2017-May-05 19:28N 01°18' E 103°41'0 0.0
2017-May-05 18:52N 01°18' E 103°41'0 0.0
2017-May-05 18:25N 01°18' E 103°41'0 0.0
2017-May-05 17:52N 01°18' E 103°41'0 0.0
2017-May-05 17:28N 01°18' E 103°41'0 0.0
2017-May-05 16:58N 01°18' E 103°41'0 0.0
2017-May-05 16:28N 01°18' E 103°41'0 0.0
2017-May-05 15:55N 01°18' E 103°41'0 0.0
2017-May-05 15:28N 01°18' E 103°41'0 0.0
2017-May-05 14:55N 01°18' E 103°41'0 0.0
2017-May-05 14:25N 01°18' E 103°41'0 0.0
2017-May-05 13:28N 01°18' E 103°41'0 0.0
2017-May-05 12:58N 01°18' E 103°41'0 0.0
2017-May-05 12:28N 01°18' E 103°41'0 0.0
2017-May-05 11:58N 01°18' E 103°41'0 0.0
2017-May-05 11:28N 01°18' E 103°41'0 0.0
2017-May-05 10:58N 01°18' E 103°41'0 0.0
2017-May-05 10:28N 01°18' E 103°41'0 0.0
2017-May-05 09:58N 01°18' E 103°41'0 0.0
2017-May-05 09:28N 01°18' E 103°41'0 0.0
2017-May-05 08:46N 01°18' E 103°41'0 0.0
2017-May-05 08:28N 01°18' E 103°41'0 0.0
2017-May-05 07:58N 01°18' E 103°41'0 0.0
2017-May-05 07:28N 01°18' E 103°41'0 0.0
2017-May-05 06:58N 01°18' E 103°41'0 0.0
2017-May-05 05:58N 01°18' E 103°41'0 0.0
2017-May-05 05:25N 01°18' E 103°41'0 0.0
2017-May-05 04:58N 01°18' E 103°41'0 0.0
2017-May-05 04:28N 01°18' E 103°41'0 0.0
2017-May-05 03:55N 01°18' E 103°41'0 0.0
2017-May-05 03:25N 01°18' E 103°41'0 0.0
2017-May-05 02:55N 01°18' E 103°41'0 0.0
2017-May-05 02:13N 01°18' E 103°41'0 0.0
2017-May-05 01:58N 01°18' E 103°41'0 0.0
2017-May-05 01:28N 01°18' E 103°41'0 0.0
2017-May-05 00:58N 01°18' E 103°41'0 0.0
2017-May-05 00:22N 01°18' E 103°41'0 0.0
2017-May-04 23:58N 01°18' E 103°41'0 0.0
2017-May-04 23:28N 01°18' E 103°41'0 0.0
2017-May-04 22:46N 01°18' E 103°41'0 0.0
2017-May-04 22:28N 01°18' E 103°41'0 0.0
2017-May-04 21:55N 01°18' E 103°41'0 0.0
2017-May-04 21:25N 01°18' E 103°41'0 0.0
2017-May-04 20:58N 01°18' E 103°41'0 0.0
2017-May-04 20:22N 01°18' E 103°41'0 0.0
2017-May-04 19:58N 01°18' E 103°41'0 0.0
2017-May-04 19:28N 01°18' E 103°41'0 0.0
2017-May-04 18:40N 01°18' E 103°41'0 0.0
2017-May-04 18:28N 01°18' E 103°41'0 0.0
2017-May-04 17:58N 01°18' E 103°41'0 0.0
2017-May-04 17:25N 01°18' E 103°41'0 0.0
2017-May-04 16:58N 01°18' E 103°41'0 0.0
2017-May-04 16:28N 01°18' E 103°41'0 0.0
2017-May-04 15:58N 01°18' E 103°41'0 0.0
2017-May-04 15:25N 01°18' E 103°41'0 0.0
2017-May-04 14:55N 01°18' E 103°41'0 0.0
2017-May-04 13:49N 01°18' E 103°41'0 0.0
2017-May-04 13:25N 01°18' E 103°41'0 0.0
2017-May-04 12:58N 01°18' E 103°41'0 0.0
2017-May-04 12:13N 01°18' E 103°41'0 0.0
2017-May-04 11:55N 01°18' E 103°41'0 0.0
2017-May-04 11:22N 01°18' E 103°41'0 0.0
2017-May-04 10:55N 01°18' E 103°41'0 0.0
2017-May-04 10:25N 01°18' E 103°41'0 0.0
2017-May-04 09:58N 01°18' E 103°41'0 0.0
2017-May-04 09:28N 01°18' E 103°41'0 0.0
2017-May-04 08:58N 01°18' E 103°41'0 0.0
2017-May-04 08:28N 01°18' E 103°41'0 0.0
2017-May-04 07:58N 01°18' E 103°41'0 0.0
2017-May-04 07:28N 01°18' E 103°41'0 0.0
2017-May-04 06:52N 01°18' E 103°41'0 0.0
2017-May-04 06:28N 01°18' E 103°41'0 0.0
2017-May-04 05:55N 01°18' E 103°41'0 0.0
2017-May-04 05:28N 01°18' E 103°41'0 0.0
2017-May-04 04:55N 01°18' E 103°41'0 0.0
2017-May-04 04:28N 01°18' E 103°41'0 0.0
2017-May-04 03:37N 01°18' E 103°41'0 0.0
2017-May-04 03:28N 01°18' E 103°41'0 0.0
2017-May-04 02:55N 01°18' E 103°41'0 0.0
2017-May-04 02:28N 01°18' E 103°41'0 0.0
2017-May-04 01:55N 01°18' E 103°41'0 0.0
2017-May-04 01:28N 01°18' E 103°41'0 0.0
2017-May-04 00:58N 01°18' E 103°41'0 0.0
2017-May-04 00:22N 01°18' E 103°41'0 0.0
2017-May-03 23:37N 01°18' E 103°41'0 0.0
2017-May-03 23:28N 01°18' E 103°41'0 0.0
2017-May-03 22:58N 01°18' E 103°41'0 0.0
2017-May-03 22:28N 01°18' E 103°41'0 0.0
2017-May-03 21:58N 01°18' E 103°41'0 0.0
2017-May-03 21:28N 01°18' E 103°41'0 0.0
2017-May-03 20:43N 01°18' E 103°41'0 0.0
2017-May-03 20:16N 01°18' E 103°41'0 0.0
2017-May-03 19:52N 01°18' E 103°41'0 0.0
2017-May-03 18:52N 01°18' E 103°41'0 0.0
2017-May-03 18:28N 01°18' E 103°41'0 0.0
2017-May-03 17:55N 01°18' E 103°41'0 0.0
2017-May-03 17:28N 01°18' E 103°41'0 0.0
2017-May-03 16:58N 01°18' E 103°41'0 0.0
2017-May-03 16:28N 01°18' E 103°41'0 0.0
2017-May-03 15:58N 01°18' E 103°41'0 0.0
2017-May-03 15:28N 01°18' E 103°41'0 0.0
2017-May-03 14:58N 01°18' E 103°41'0 0.0
2017-May-03 13:55N 01°18' E 103°41'0 0.0
2017-May-03 13:28N 01°18' E 103°41'0 0.0
2017-May-03 12:55N 01°18' E 103°41'0 0.0
2017-May-03 12:28N 01°18' E 103°41'0 0.0
2017-May-03 11:58N 01°18' E 103°41'0 0.0
2017-May-03 11:22N 01°18' E 103°41'0 0.0
2017-May-03 10:58N 01°18' E 103°41'0 0.0
2017-May-03 10:16N 01°18' E 103°41'0 0.0
2017-May-03 09:55N 01°18' E 103°41'0 0.0
2017-May-03 09:25N 01°18' E 103°41'0 0.0
2017-May-03 08:58N 01°18' E 103°41'0 0.0
2017-May-03 08:28N 01°18' E 103°41'0 0.0
2017-May-03 07:58N 01°18' E 103°41'0 0.0
2017-May-03 07:25N 01°18' E 103°41'0 0.0
2017-May-03 06:55N 01°18' E 103°41'0 0.0
2017-May-03 06:28N 01°18' E 103°41'0 0.0
2017-May-03 05:58N 01°18' E 103°41'0 0.0
2017-May-03 05:25N 01°18' E 103°41'0 0.0
2017-May-03 04:58N 01°18' E 103°41'0 0.0
2017-May-03 04:28N 01°18' E 103°41'0 0.0
2017-May-03 03:43N 01°18' E 103°41'0 0.0
2017-May-03 03:28N 01°18' E 103°41'0 0.0
2017-May-03 02:58N 01°18' E 103°41'0 0.0
2017-May-03 02:28N 01°18' E 103°41'0 0.0
2017-May-03 01:58N 01°18' E 103°41'0 0.0
2017-May-03 01:28N 01°18' E 103°41'0 0.0
2017-May-03 00:58N 01°18' E 103°41'0 0.0
2017-May-03 00:19N 01°18' E 103°41'0 0.0
2017-May-02 23:58N 01°18' E 103°41'0 0.0
2017-May-02 23:28N 01°18' E 103°41'0 0.0
2017-May-02 22:58N 01°18' E 103°41'0 0.0
2017-May-02 22:22N 01°18' E 103°41'0 0.0
2017-May-02 21:58N 01°18' E 103°41'0 0.0
2017-May-02 21:28N 01°18' E 103°41'0 0.0
2017-May-02 20:58N 01°18' E 103°41'0 0.0
2017-May-02 20:28N 01°18' E 103°41'0 0.0
2017-May-02 19:58N 01°18' E 103°41'0 0.0
2017-May-02 19:28N 01°18' E 103°41'0 0.0
2017-May-02 18:58N 01°18' E 103°41'0 0.0
2017-May-02 18:28N 01°18' E 103°41'0 0.0
2017-May-02 17:58N 01°18' E 103°41'0 0.0
2017-May-02 17:25N 01°18' E 103°41'0 0.0
2017-May-02 16:58N 01°18' E 103°41'0 0.0
2017-May-02 16:28N 01°18' E 103°41'0 0.0
2017-May-02 15:58N 01°18' E 103°41'0 0.0
2017-May-02 15:28N 01°18' E 103°41'0 0.0
2017-May-02 14:58N 01°18' E 103°41'0 0.0
2017-May-02 14:28N 01°18' E 103°41'0 0.0
2017-May-02 13:25N 01°18' E 103°41'0 0.0
2017-May-02 12:58N 01°18' E 103°41'0 0.0
2017-May-02 12:28N 01°18' E 103°41'0 0.0
2017-May-02 11:58N 01°18' E 103°41'0 0.0
2017-May-02 11:28N 01°18' E 103°41'0 0.0
2017-May-02 10:58N 01°18' E 103°41'0 0.0
2017-May-02 10:25N 01°18' E 103°41'0 0.0
2017-May-02 09:58N 01°18' E 103°41'0 0.0
2017-May-02 09:25N 01°18' E 103°41'0 0.0
2017-May-02 08:58N 01°18' E 103°41'0 0.0
2017-May-02 08:28N 01°18' E 103°41'0 0.0
2017-May-02 07:58N 01°18' E 103°41'0 0.0
2017-May-02 07:25N 01°18' E 103°41'0 0.0
2017-May-02 06:58N 01°18' E 103°41'0 0.0
2017-May-02 06:22N 01°18' E 103°41'0 0.0
2017-May-02 05:55N 01°18' E 103°41'0 0.0
2017-May-02 05:19N 01°18' E 103°41'0 0.0
2017-May-02 04:58N 01°18' E 103°41'0 0.0
2017-May-02 04:28N 01°18' E 103°41'0 0.0
2017-May-02 03:55N 01°18' E 103°41'  
2017-Apr-28 13:21N 01°18' E 103°41'0 0.0
2017-Apr-28 13:00N 01°18' E 103°41'0 0.0
2017-Apr-28 12:27N 01°18' E 103°41'0 0.1
2017-Apr-28 12:01N 01°18' E 103°41'0 0.3
2017-Apr-28 11:31N 01°18' E 103°41'0 0.0
2017-Apr-28 11:01N 01°18' E 103°41'0 0.0
2017-Apr-28 10:30N 01°18' E 103°41'0 0.3
2017-Apr-28 10:00N 01°18' E 103°41'0 0.5
2017-Apr-28 09:30N 01°17' E 103°41'2 3.4
2017-Apr-28 09:00N 01°17' E 103°39'4 7.7
2017-Apr-28 08:31N 01°13' E 103°40'2 3.7
2017-Apr-28 07:57N 01°12' E 103°42'0 0.1
2017-Apr-28 07:27N 01°12' E 103°42'0 0.1
2017-Apr-28 06:57N 01°12' E 103°42'0 0.1
2017-Apr-28 06:30N 01°12' E 103°42'0 0.1
2017-Apr-28 05:54N 01°12' E 103°42'0 0.2
2017-Apr-28 05:30N 01°12' E 103°42'0 0.1
2017-Apr-28 04:51N 01°12' E 103°42'0 0.2
2017-Apr-28 04:30N 01°12' E 103°42'0 0.1
2017-Apr-28 03:57N 01°12' E 103°42'0 0.2
2017-Apr-28 03:27N 01°12' E 103°42'0 0.1
2017-Apr-28 02:57N 01°12' E 103°42'0 0.0
2017-Apr-28 02:27N 01°12' E 103°42'0 0.1
2017-Apr-28 01:57N 01°12' E 103°42'0 0.0
2017-Apr-28 01:29N 01°12' E 103°42'0 0.1
2017-Apr-28 00:54N 01°12' E 103°42'0 0.2
2017-Apr-28 00:30N 01°12' E 103°42'0 0.1
2017-Apr-27 23:57N 01°12' E 103°42'0 0.1
2017-Apr-27 23:30N 01°12' E 103°42'0 0.1
2017-Apr-27 22:57N 01°12' E 103°42'0 0.0
2017-Apr-27 22:30N 01°12' E 103°42'0 0.1
2017-Apr-27 21:54N 01°12' E 103°42'0 0.0
2017-Apr-27 21:29N 01°12' E 103°42'0 0.0
2017-Apr-27 20:57N 01°12' E 103°42'0 0.0
2017-Apr-27 20:30N 01°12' E 103°42'0 0.0
2017-Apr-27 19:53N 01°12' E 103°42'  
Track history (hours):
 
Tides and Currents Weather Stations Pressure Air Temp Water Temp Dewpoint Dewpoint Depression Visibility Wind Speed Wind Dir Waves Ship Positions

King Philippos

Last reported at 2017-May-07 19:36 UTC. Time now 2017-May-25 14:09 UTC.
Position N 01°53' E 102°24'.
Warning: this ship's position is 17 days out of date.

Length 250 m; draft 8.1 m.

Type: Tanker. MMSI: 229046000.

Date/timePositionNaut miles runAvg speedWind from/ knotsBaromVisibWave heightAir tempDewpointWater temp
2017-May-07 19:36N 01°53' E 102°24'113.3
2017-May-07 19:30N 01°53' E 102°25'1713.4
2017-May-07 18:12N 01°46' E 102°41'5412.3
2017-May-07 13:46N 01°15' E 103°26'411.2
2017-May-07 13:27N 01°14' E 103°30'511.7
2017-May-07 13:00N 01°12' E 103°35'4 8.4
2017-May-07 12:31N 01°10' E 103°39'2 4.8
2017-May-07 11:59N 01°10' E 103°41'4 8.2
2017-May-07 11:30N 01°09' E 103°45'611.8
2017-May-07 11:00N 01°11' E 103°50'611.4
2017-May-07 10:31N 01°14' E 103°55'611.3
2017-May-07 10:00N 01°16' E 104°01'3 0.4
2017-May-07 02:50N 01°15' E 104°03'412.9
2017-May-07 02:30N 01°14' E 103°59'612.5
2017-May-07 02:00N 01°12' E 103°53'612.0
2017-May-07 01:31N 01°09' E 103°48'612.3
2017-May-07 01:01N 01°05' E 103°43'611.5
2017-May-07 00:30N 01°03' E 103°38'612.1
2017-May-06 23:59N 01°06' E 103°33'5 9.9
2017-May-06 23:30N 01°10' E 103°35'510.4
2017-May-06 23:00N 01°11' E 103°40'2 3.3
2017-May-06 22:31N 01°13' E 103°41'0 0.1
2017-May-06 21:58N 01°13' E 103°41'0 0.0
2017-May-06 21:28N 01°13' E 103°41'0 0.0
2017-May-06 20:58N 01°13' E 103°41'0 0.0
2017-May-06 20:28N 01°13' E 103°41'0 0.1
2017-May-06 19:58N 01°13' E 103°41'0 0.1
2017-May-06 19:28N 01°13' E 103°41'0 0.3
2017-May-06 18:55N 01°12' E 103°41'0 0.1
2017-May-06 18:25N 01°12' E 103°41'0 0.0
2017-May-06 17:58N 01°12' E 103°41'0 0.0
2017-May-06 17:28N 01°12' E 103°41'0 0.0
2017-May-06 16:55N 01°12' E 103°41'0 0.1
2017-May-06 16:28N 01°12' E 103°41'0 0.1
2017-May-06 15:58N 01°12' E 103°41'0 0.0
2017-May-06 15:28N 01°12' E 103°41'0 0.1
2017-May-06 14:58N 01°12' E 103°41'0 0.0
2017-May-06 13:55N 01°12' E 103°41'0 0.0
2017-May-06 13:28N 01°12' E 103°41'0 0.0
2017-May-06 12:52N 01°12' E 103°41'0 0.3
2017-May-06 12:28N 01°12' E 103°41'0 0.1
2017-May-06 11:58N 01°13' E 103°41'0 0.1
2017-May-06 11:28N 01°13' E 103°41'0 0.0
2017-May-06 10:52N 01°13' E 103°41'0 0.0
2017-May-06 10:28N 01°13' E 103°41'0 1.1
2017-May-06 10:00N 01°13' E 103°41'2 4.8
2017-May-06 09:30N 01°15' E 103°39'2 4.2
2017-May-06 09:00N 01°17' E 103°40'2 3.3
2017-May-06 08:28N 01°18' E 103°41'0 0.7
2017-May-06 07:58N 01°18' E 103°41'0 0.2
2017-May-06 07:28N 01°18' E 103°41'0 0.0
2017-May-06 06:55N 01°18' E 103°41'0 0.0
2017-May-06 06:25N 01°18' E 103°41'0 0.0
2017-May-06 05:58N 01°18' E 103°41'0 0.0
2017-May-06 05:16N 01°18' E 103°41'0 0.0
2017-May-06 04:58N 01°18' E 103°41'0 0.0
2017-May-06 04:28N 01°18' E 103°41'0 0.0
2017-May-06 03:52N 01°18' E 103°41'0 0.0
2017-May-06 03:28N 01°18' E 103°41'0 0.0
2017-May-06 02:58N 01°18' E 103°41'0 0.0
2017-May-06 02:28N 01°18' E 103°41'0 0.0
2017-May-06 01:58N 01°18' E 103°41'0 0.0
2017-May-06 01:28N 01°18' E 103°41'0 0.0
2017-May-06 00:49N 01°18' E 103°41'0 0.0
2017-May-06 00:19N 01°18' E 103°41'0 0.0
2017-May-05 23:58N 01°18' E 103°41'0 0.0
2017-May-05 23:28N 01°18' E 103°41'0 0.0
2017-May-05 22:58N 01°18' E 103°41'0 0.0
2017-May-05 22:28N 01°18' E 103°41'0 0.0
2017-May-05 21:55N 01°18' E 103°41'0 0.0
2017-May-05 21:28N 01°18' E 103°41'0 0.0
2017-May-05 20:58N 01°18' E 103°41'0 0.0
2017-May-05 20:28N 01°18' E 103°41'0 0.0
2017-May-05 19:52N 01°18' E 103°41'0 0.0
2017-May-05 19:28N 01°18' E 103°41'0 0.0
2017-May-05 18:52N 01°18' E 103°41'0 0.0
2017-May-05 18:25N 01°18' E 103°41'0 0.0
2017-May-05 17:52N 01°18' E 103°41'0 0.0
2017-May-05 17:28N 01°18' E 103°41'0 0.0
2017-May-05 16:58N 01°18' E 103°41'0 0.0
2017-May-05 16:28N 01°18' E 103°41'0 0.0
2017-May-05 15:55N 01°18' E 103°41'0 0.0
2017-May-05 15:28N 01°18' E 103°41'0 0.0
2017-May-05 14:55N 01°18' E 103°41'0 0.0
2017-May-05 14:25N 01°18' E 103°41'0 0.0
2017-May-05 13:28N 01°18' E 103°41'0 0.0
2017-May-05 12:58N 01°18' E 103°41'0 0.0
2017-May-05 12:28N 01°18' E 103°41'0 0.0
2017-May-05 11:58N 01°18' E 103°41'0 0.0
2017-May-05 11:28N 01°18' E 103°41'0 0.0
2017-May-05 10:58N 01°18' E 103°41'0 0.0
2017-May-05 10:28N 01°18' E 103°41'0 0.0
2017-May-05 09:58N 01°18' E 103°41'0 0.0
2017-May-05 09:28N 01°18' E 103°41'0 0.0
2017-May-05 08:46N 01°18' E 103°41'0 0.0
2017-May-05 08:28N 01°18' E 103°41'0 0.0
2017-May-05 07:58N 01°18' E 103°41'0 0.0
2017-May-05 07:28N 01°18' E 103°41'0 0.0
2017-May-05 06:58N 01°18' E 103°41'0 0.0
2017-May-05 05:58N 01°18' E 103°41'0 0.0
2017-May-05 05:25N 01°18' E 103°41'0 0.0
2017-May-05 04:58N 01°18' E 103°41'0 0.0
2017-May-05 04:28N 01°18' E 103°41'0 0.0
2017-May-05 03:55N 01°18' E 103°41'0 0.0
2017-May-05 03:25N 01°18' E 103°41'0 0.0
2017-May-05 02:55N 01°18' E 103°41'0 0.0
2017-May-05 02:13N 01°18' E 103°41'0 0.0
2017-May-05 01:58N 01°18' E 103°41'0 0.0
2017-May-05 01:28N 01°18' E 103°41'0 0.0
2017-May-05 00:58N 01°18' E 103°41'0 0.0
2017-May-05 00:22N 01°18' E 103°41'0 0.0
2017-May-04 23:58N 01°18' E 103°41'0 0.0
2017-May-04 23:28N 01°18' E 103°41'0 0.0
2017-May-04 22:46N 01°18' E 103°41'0 0.0
2017-May-04 22:28N 01°18' E 103°41'0 0.0
2017-May-04 21:55N 01°18' E 103°41'0 0.0
2017-May-04 21:25N 01°18' E 103°41'0 0.0
2017-May-04 20:58N 01°18' E 103°41'0 0.0
2017-May-04 20:22N 01°18' E 103°41'0 0.0
2017-May-04 19:58N 01°18' E 103°41'0 0.0
2017-May-04 19:28N 01°18' E 103°41'0 0.0
2017-May-04 18:40N 01°18' E 103°41'0 0.0
2017-May-04 18:28N 01°18' E 103°41'0 0.0
2017-May-04 17:58N 01°18' E 103°41'0 0.0
2017-May-04 17:25N 01°18' E 103°41'0 0.0
2017-May-04 16:58N 01°18' E 103°41'0 0.0
2017-May-04 16:28N 01°18' E 103°41'0 0.0
2017-May-04 15:58N 01°18' E 103°41'0 0.0
2017-May-04 15:25N 01°18' E 103°41'0 0.0
2017-May-04 14:55N 01°18' E 103°41'0 0.0
2017-May-04 13:49N 01°18' E 103°41'0 0.0
2017-May-04 13:25N 01°18' E 103°41'0 0.0
2017-May-04 12:58N 01°18' E 103°41'0 0.0
2017-May-04 12:13N 01°18' E 103°41'0 0.0
2017-May-04 11:55N 01°18' E 103°41'0 0.0
2017-May-04 11:22N 01°18' E 103°41'0 0.0
2017-May-04 10:55N 01°18' E 103°41'0 0.0
2017-May-04 10:25N 01°18' E 103°41'0 0.0
2017-May-04 09:58N 01°18' E 103°41'0 0.0
2017-May-04 09:28N 01°18' E 103°41'0 0.0
2017-May-04 08:58N 01°18' E 103°41'0 0.0
2017-May-04 08:28N 01°18' E 103°41'0 0.0
2017-May-04 07:58N 01°18' E 103°41'0 0.0
2017-May-04 07:28N 01°18' E 103°41'0 0.0
2017-May-04 06:52N 01°18' E 103°41'0 0.0
2017-May-04 06:28N 01°18' E 103°41'0 0.0
2017-May-04 05:55N 01°18' E 103°41'0 0.0
2017-May-04 05:28N 01°18' E 103°41'0 0.0
2017-May-04 04:55N 01°18' E 103°41'0 0.0
2017-May-04 04:28N 01°18' E 103°41'0 0.0
2017-May-04 03:37N 01°18' E 103°41'0 0.0
2017-May-04 03:28N 01°18' E 103°41'0 0.0
2017-May-04 02:55N 01°18' E 103°41'0 0.0
2017-May-04 02:28N 01°18' E 103°41'0 0.0
2017-May-04 01:55N 01°18' E 103°41'0 0.0
2017-May-04 01:28N 01°18' E 103°41'0 0.0
2017-May-04 00:58N 01°18' E 103°41'0 0.0
2017-May-04 00:22N 01°18' E 103°41'0 0.0
2017-May-03 23:37N 01°18' E 103°41'0 0.0
2017-May-03 23:28N 01°18' E 103°41'0 0.0
2017-May-03 22:58N 01°18' E 103°41'0 0.0
2017-May-03 22:28N 01°18' E 103°41'0 0.0
2017-May-03 21:58N 01°18' E 103°41'0 0.0
2017-May-03 21:28N 01°18' E 103°41'0 0.0
2017-May-03 20:43N 01°18' E 103°41'0 0.0
2017-May-03 20:16N 01°18' E 103°41'0 0.0
2017-May-03 19:52N 01°18' E 103°41'0 0.0
2017-May-03 18:52N 01°18' E 103°41'0 0.0
2017-May-03 18:28N 01°18' E 103°41'0 0.0
2017-May-03 17:55N 01°18' E 103°41'0 0.0
2017-May-03 17:28N 01°18' E 103°41'0 0.0
2017-May-03 16:58N 01°18' E 103°41'0 0.0
2017-May-03 16:28N 01°18' E 103°41'0 0.0
2017-May-03 15:58N 01°18' E 103°41'0 0.0
2017-May-03 15:28N 01°18' E 103°41'0 0.0
2017-May-03 14:58N 01°18' E 103°41'0 0.0
2017-May-03 13:55N 01°18' E 103°41'0 0.0
2017-May-03 13:28N 01°18' E 103°41'0 0.0
2017-May-03 12:55N 01°18' E 103°41'0 0.0
2017-May-03 12:28N 01°18' E 103°41'0 0.0
2017-May-03 11:58N 01°18' E 103°41'0 0.0
2017-May-03 11:22N 01°18' E 103°41'0 0.0
2017-May-03 10:58N 01°18' E 103°41'0 0.0
2017-May-03 10:16N 01°18' E 103°41'0 0.0
2017-May-03 09:55N 01°18' E 103°41'0 0.0
2017-May-03 09:25N 01°18' E 103°41'0 0.0
2017-May-03 08:58N 01°18' E 103°41'0 0.0
2017-May-03 08:28N 01°18' E 103°41'0 0.0
2017-May-03 07:58N 01°18' E 103°41'0 0.0
2017-May-03 07:25N 01°18' E 103°41'0 0.0
2017-May-03 06:55N 01°18' E 103°41'0 0.0
2017-May-03 06:28N 01°18' E 103°41'0 0.0
2017-May-03 05:58N 01°18' E 103°41'0 0.0
2017-May-03 05:25N 01°18' E 103°41'0 0.0
2017-May-03 04:58N 01°18' E 103°41'0 0.0
2017-May-03 04:28N 01°18' E 103°41'0 0.0
2017-May-03 03:43N 01°18' E 103°41'0 0.0
2017-May-03 03:28N 01°18' E 103°41'0 0.0
2017-May-03 02:58N 01°18' E 103°41'0 0.0
2017-May-03 02:28N 01°18' E 103°41'0 0.0
2017-May-03 01:58N 01°18' E 103°41'0 0.0
2017-May-03 01:28N 01°18' E 103°41'0 0.0
2017-May-03 00:58N 01°18' E 103°41'0 0.0
2017-May-03 00:19N 01°18' E 103°41'0 0.0
2017-May-02 23:58N 01°18' E 103°41'0 0.0
2017-May-02 23:28N 01°18' E 103°41'0 0.0
2017-May-02 22:58N 01°18' E 103°41'0 0.0
2017-May-02 22:22N 01°18' E 103°41'0 0.0
2017-May-02 21:58N 01°18' E 103°41'0 0.0
2017-May-02 21:28N 01°18' E 103°41'0 0.0
2017-May-02 20:58N 01°18' E 103°41'0 0.0
2017-May-02 20:28N 01°18' E 103°41'0 0.0
2017-May-02 19:58N 01°18' E 103°41'0 0.0
2017-May-02 19:28N 01°18' E 103°41'0 0.0
2017-May-02 18:58N 01°18' E 103°41'0 0.0
2017-May-02 18:28N 01°18' E 103°41'0 0.0
2017-May-02 17:58N 01°18' E 103°41'0 0.0
2017-May-02 17:25N 01°18' E 103°41'0 0.0
2017-May-02 16:58N 01°18' E 103°41'0 0.0
2017-May-02 16:28N 01°18' E 103°41'0 0.0
2017-May-02 15:58N 01°18' E 103°41'0 0.0
2017-May-02 15:28N 01°18' E 103°41'0 0.0
2017-May-02 14:58N 01°18' E 103°41'0 0.0
2017-May-02 14:28N 01°18' E 103°41'0 0.0
2017-May-02 13:25N 01°18' E 103°41'0 0.0
2017-May-02 12:58N 01°18' E 103°41'0 0.0
2017-May-02 12:28N 01°18' E 103°41'0 0.0
2017-May-02 11:58N 01°18' E 103°41'0 0.0
2017-May-02 11:28N 01°18' E 103°41'0 0.0
2017-May-02 10:58N 01°18' E 103°41'0 0.0
2017-May-02 10:25N 01°18' E 103°41'0 0.0
2017-May-02 09:58N 01°18' E 103°41'0 0.0
2017-May-02 09:25N 01°18' E 103°41'0 0.0
2017-May-02 08:58N 01°18' E 103°41'0 0.0
2017-May-02 08:28N 01°18' E 103°41'0 0.0
2017-May-02 07:58N 01°18' E 103°41'0 0.0
2017-May-02 07:25N 01°18' E 103°41'0 0.0
2017-May-02 06:58N 01°18' E 103°41'0 0.0
2017-May-02 06:22N 01°18' E 103°41'0 0.0
2017-May-02 05:55N 01°18' E 103°41'0 0.0
2017-May-02 05:19N 01°18' E 103°41'0 0.0
2017-May-02 04:58N 01°18' E 103°41'0 0.0
2017-May-02 04:28N 01°18' E 103°41'0 0.0
2017-May-02 03:55N 01°18' E 103°41'  
2017-Apr-28 13:21N 01°18' E 103°41'0 0.0
2017-Apr-28 13:00N 01°18' E 103°41'0 0.0
2017-Apr-28 12:27N 01°18' E 103°41'0 0.1
2017-Apr-28 12:01N 01°18' E 103°41'0 0.3
2017-Apr-28 11:31N 01°18' E 103°41'0 0.0
2017-Apr-28 11:01N 01°18' E 103°41'0 0.0
2017-Apr-28 10:30N 01°18' E 103°41'0 0.3
2017-Apr-28 10:00N 01°18' E 103°41'0 0.5
2017-Apr-28 09:30N 01°17' E 103°41'2 3.4
2017-Apr-28 09:00N 01°17' E 103°39'4 7.7
2017-Apr-28 08:31N 01°13' E 103°40'2 3.7
2017-Apr-28 07:57N 01°12' E 103°42'0 0.1
2017-Apr-28 07:27N 01°12' E 103°42'0 0.1
2017-Apr-28 06:57N 01°12' E 103°42'0 0.1
2017-Apr-28 06:30N 01°12' E 103°42'0 0.1
2017-Apr-28 05:54N 01°12' E 103°42'0 0.2
2017-Apr-28 05:30N 01°12' E 103°42'0 0.1
2017-Apr-28 04:51N 01°12' E 103°42'0 0.2
2017-Apr-28 04:30N 01°12' E 103°42'0 0.1
2017-Apr-28 03:57N 01°12' E 103°42'0 0.2
2017-Apr-28 03:27N 01°12' E 103°42'0 0.1
2017-Apr-28 02:57N 01°12' E 103°42'0 0.0
2017-Apr-28 02:27N 01°12' E 103°42'0 0.1
2017-Apr-28 01:57N 01°12' E 103°42'0 0.0
2017-Apr-28 01:29N 01°12' E 103°42'0 0.1
2017-Apr-28 00:54N 01°12' E 103°42'0 0.2
2017-Apr-28 00:30N 01°12' E 103°42'0 0.1
2017-Apr-27 23:57N 01°12' E 103°42'0 0.1
2017-Apr-27 23:30N 01°12' E 103°42'0 0.1
2017-Apr-27 22:57N 01°12' E 103°42'0 0.0
2017-Apr-27 22:30N 01°12' E 103°42'0 0.1
2017-Apr-27 21:54N 01°12' E 103°42'0 0.0
2017-Apr-27 21:29N 01°12' E 103°42'0 0.0
2017-Apr-27 20:57N 01°12' E 103°42'0 0.0
2017-Apr-27 20:30N 01°12' E 103°42'0 0.0
2017-Apr-27 19:53N 01°12' E 103°42'  

Dump ship's entire track history